sensor_id;sensor_type;location;lat;lon;timestamp;temperature;humidity
66184;DHT22;52989;48.796;9.806;2023-05-16T00:00:53;8.70;99.90
66184;DHT22;52989;48.796;9.806;2023-05-16T00:03:19;9.00;99.90
66184;DHT22;52989;48.796;9.806;2023-05-16T00:05:44;8.70;99.90
66184;DHT22;52989;48.796;9.806;2023-05-16T00:08:11;8.50;99.90
66184;DHT22;52989;48.796;9.806;2023-05-16T00:10:36;8.40;99.90
66184;DHT22;52989;48.796;9.806;2023-05-16T00:13:02;8.30;99.90
66184;DHT22;52989;48.796;9.806;2023-05-16T00:15:27;8.20;99.90
66184;DHT22;52989;48.796;9.806;2023-05-16T00:17:54;8.10;99.90
66184;DHT22;52989;48.796;9.806;2023-05-16T00:20:23;8.00;99.90
66184;DHT22;52989;48.796;9.806;2023-05-16T00:22:49;8.40;99.90
66184;DHT22;52989;48.796;9.806;2023-05-16T00:25:14;8.50;99.90
66184;DHT22;52989;48.796;9.806;2023-05-16T00:27:40;8.40;99.90
66184;DHT22;52989;48.796;9.806;2023-05-16T00:30:06;8.70;99.90
66184;DHT22;52989;48.796;9.806;2023-05-16T00:32:31;8.50;99.90
66184;DHT22;52989;48.796;9.806;2023-05-16T00:34:57;8.40;99.90
66184;DHT22;52989;48.796;9.806;2023-05-16T00:37:23;8.80;99.90
66184;DHT22;52989;48.796;9.806;2023-05-16T00:39:48;8.80;99.90
66184;DHT22;52989;48.796;9.806;2023-05-16T00:42:14;8.90;99.90
66184;DHT22;52989;48.796;9.806;2023-05-16T00:44:39;8.50;99.90
66184;DHT22;52989;48.796;9.806;2023-05-16T00:47:05;8.20;99.90
66184;DHT22;52989;48.796;9.806;2023-05-16T00:49:31;8.10;99.90
66184;DHT22;52989;48.796;9.806;2023-05-16T00:51:57;8.00;99.90
66184;DHT22;52989;48.796;9.806;2023-05-16T00:54:22;7.90;99.90
66184;DHT22;52989;48.796;9.806;2023-05-16T00:56:51;8.00;99.90
66184;DHT22;52989;48.796;9.806;2023-05-16T00:59:17;8.10;99.90
66184;DHT22;52989;48.796;9.806;2023-05-16T01:01:44;8.80;99.90
66184;DHT22;52989;48.796;9.806;2023-05-16T01:04:10;8.90;99.90
66184;DHT22;52989;48.796;9.806;2023-05-16T01:06:36;9.00;99.90
66184;DHT22;52989;48.796;9.806;2023-05-16T01:09:01;8.60;99.90
66184;DHT22;52989;48.796;9.806;2023-05-16T01:22:02;8.00;99.90
66184;DHT22;52989;48.796;9.806;2023-05-16T01:24:33;8.00;99.90
66184;DHT22;52989;48.796;9.806;2023-05-16T01:26:59;7.80;99.90
66184;DHT22;52989;48.796;9.806;2023-05-16T01:29:24;7.80;99.90
66184;DHT22;52989;48.796;9.806;2023-05-16T01:31:50;8.00;99.90
66184;DHT22;52989;48.796;9.806;2023-05-16T01:34:15;8.50;99.90
66184;DHT22;52989;48.796;9.806;2023-05-16T01:37:05;9.00;99.90
66184;DHT22;52989;48.796;9.806;2023-05-16T01:42:08;8.20;99.90
66184;DHT22;52989;48.796;9.806;2023-05-16T01:44:36;8.80;99.90
66184;DHT22;52989;48.796;9.806;2023-05-16T01:47:08;8.50;99.90
66184;DHT22;52989;48.796;9.806;2023-05-16T01:54:55;8.40;99.90
66184;DHT22;52989;48.796;9.806;2023-05-16T01:57:21;8.80;99.90
66184;DHT22;52989;48.796;9.806;2023-05-16T01:59:48;8.50;99.90
66184;DHT22;52989;48.796;9.806;2023-05-16T02:02:17;8.70;99.90
66184;DHT22;52989;48.796;9.806;2023-05-16T02:04:42;8.50;99.90
66184;DHT22;52989;48.796;9.806;2023-05-16T02:07:07;8.30;99.90
66184;DHT22;52989;48.796;9.806;2023-05-16T02:09:33;8.30;99.90
66184;DHT22;52989;48.796;9.806;2023-05-16T02:11:58;8.20;99.90
66184;DHT22;52989;48.796;9.806;2023-05-16T02:14:24;8.10;99.90
66184;DHT22;52989;48.796;9.806;2023-05-16T02:16:50;8.10;99.90
66184;DHT22;52989;48.796;9.806;2023-05-16T02:19:15;8.10;99.90
66184;DHT22;52989;48.796;9.806;2023-05-16T02:21:41;8.10;99.90
66184;DHT22;52989;48.796;9.806;2023-05-16T02:24:06;8.10;99.90
66184;DHT22;52989;48.796;9.806;2023-05-16T02:26:32;8.00;99.90
66184;DHT22;52989;48.796;9.806;2023-05-16T02:28:57;8.00;99.90
66184;DHT22;52989;48.796;9.806;2023-05-16T02:31:26;8.00;99.90
66184;DHT22;52989;48.796;9.806;2023-05-16T02:33:51;8.40;99.90
66184;DHT22;52989;48.796;9.806;2023-05-16T02:36:17;8.30;99.90
66184;DHT22;52989;48.796;9.806;2023-05-16T02:38:42;8.10;99.90
66184;DHT22;52989;48.796;9.806;2023-05-16T02:41:08;8.10;99.90
66184;DHT22;52989;48.796;9.806;2023-05-16T02:43:33;8.10;99.90
66184;DHT22;52989;48.796;9.806;2023-05-16T02:45:59;8.20;99.90
66184;DHT22;52989;48.796;9.806;2023-05-16T02:48:24;8.40;99.90
66184;DHT22;52989;48.796;9.806;2023-05-16T02:50:50;8.90;99.90
66184;DHT22;52989;48.796;9.806;2023-05-16T02:53:16;8.40;99.90
66184;DHT22;52989;48.796;9.806;2023-05-16T02:55:41;8.10;99.90
66184;DHT22;52989;48.796;9.806;2023-05-16T02:58:07;8.10;99.90
66184;DHT22;52989;48.796;9.806;2023-05-16T03:00:33;7.90;99.90
66184;DHT22;52989;48.796;9.806;2023-05-16T03:02:58;7.70;99.90
66184;DHT22;52989;48.796;9.806;2023-05-16T03:05:24;7.60;99.90
66184;DHT22;52989;48.796;9.806;2023-05-16T03:07:49;7.60;99.90
66184;DHT22;52989;48.796;9.806;2023-05-16T03:10:15;7.70;99.90
66184;DHT22;52989;48.796;9.806;2023-05-16T03:12:40;7.70;99.90
66184;DHT22;52989;48.796;9.806;2023-05-16T03:15:06;7.70;99.90
66184;DHT22;52989;48.796;9.806;2023-05-16T03:17:33;7.60;99.90
66184;DHT22;52989;48.796;9.806;2023-05-16T03:19:58;7.60;99.90
66184;DHT22;52989;48.796;9.806;2023-05-16T03:22:24;7.50;99.90
66184;DHT22;52989;48.796;9.806;2023-05-16T03:24:49;7.50;99.90
66184;DHT22;52989;48.796;9.806;2023-05-16T03:27:15;7.40;99.90
66184;DHT22;52989;48.796;9.806;2023-05-16T03:29:40;7.40;99.90
66184;DHT22;52989;48.796;9.806;2023-05-16T03:32:06;7.30;99.90
66184;DHT22;52989;48.796;9.806;2023-05-16T03:34:31;7.20;99.90
66184;DHT22;52989;48.796;9.806;2023-05-16T03:36:57;7.20;99.90
66184;DHT22;52989;48.796;9.806;2023-05-16T03:39:22;7.40;99.90
66184;DHT22;52989;48.796;9.806;2023-05-16T03:41:48;7.30;99.90
66184;DHT22;52989;48.796;9.806;2023-05-16T03:44:13;7.60;99.90
66184;DHT22;52989;48.796;9.806;2023-05-16T03:46:39;8.10;99.90
66184;DHT22;52989;48.796;9.806;2023-05-16T03:49:04;8.00;99.90
66184;DHT22;52989;48.796;9.806;2023-05-16T03:51:30;8.50;99.90
66184;DHT22;52989;48.796;9.806;2023-05-16T03:53:56;8.20;99.90
66184;DHT22;52989;48.796;9.806;2023-05-16T03:56:22;8.00;99.90
66184;DHT22;52989;48.796;9.806;2023-05-16T03:58:47;7.80;99.90
66184;DHT22;52989;48.796;9.806;2023-05-16T04:01:13;7.80;99.90
66184;DHT22;52989;48.796;9.806;2023-05-16T04:03:38;7.70;99.90
66184;DHT22;52989;48.796;9.806;2023-05-16T04:06:05;7.80;99.90
66184;DHT22;52989;48.796;9.806;2023-05-16T04:08:30;8.00;99.90
66184;DHT22;52989;48.796;9.806;2023-05-16T04:10:57;8.00;99.90
66184;DHT22;52989;48.796;9.806;2023-05-16T04:13:23;8.00;99.90
66184;DHT22;52989;48.796;9.806;2023-05-16T04:15:49;8.10;99.90
66184;DHT22;52989;48.796;9.806;2023-05-16T04:18:15;8.10;99.90
66184;DHT22;52989;48.796;9.806;2023-05-16T04:20:41;9.20;99.90
66184;DHT22;52989;48.796;9.806;2023-05-16T04:23:07;8.60;99.90
66184;DHT22;52989;48.796;9.806;2023-05-16T04:25:32;8.40;99.90
66184;DHT22;52989;48.796;9.806;2023-05-16T04:27:58;8.30;99.90
66184;DHT22;52989;48.796;9.806;2023-05-16T04:30:23;8.30;99.90
66184;DHT22;52989;48.796;9.806;2023-05-16T04:32:49;8.20;99.90
66184;DHT22;52989;48.796;9.806;2023-05-16T04:35:15;8.30;99.90
66184;DHT22;52989;48.796;9.806;2023-05-16T04:37:40;8.70;99.90
66184;DHT22;52989;48.796;9.806;2023-05-16T04:40:06;9.60;99.90
66184;DHT22;52989;48.796;9.806;2023-05-16T04:42:34;9.90;99.90
66184;DHT22;52989;48.796;9.806;2023-05-16T04:44:59;10.30;99.90
66184;DHT22;52989;48.796;9.806;2023-05-16T04:47:25;10.40;99.90
66184;DHT22;52989;48.796;9.806;2023-05-16T04:49:50;9.90;99.90
66184;DHT22;52989;48.796;9.806;2023-05-16T04:52:16;9.40;99.90
66184;DHT22;52989;48.796;9.806;2023-05-16T04:54:41;9.20;99.90
66184;DHT22;52989;48.796;9.806;2023-05-16T04:57:07;9.10;99.90
66184;DHT22;52989;48.796;9.806;2023-05-16T04:59:32;9.40;99.90
66184;DHT22;52989;48.796;9.806;2023-05-16T05:01:58;9.20;99.90
66184;DHT22;52989;48.796;9.806;2023-05-16T05:04:23;9.10;99.90
66184;DHT22;52989;48.796;9.806;2023-05-16T05:06:49;9.00;99.90
66184;DHT22;52989;48.796;9.806;2023-05-16T05:09:14;9.50;99.90
66184;DHT22;52989;48.796;9.806;2023-05-16T05:11:40;9.30;99.90
66184;DHT22;52989;48.796;9.806;2023-05-16T05:14:05;9.60;99.90
66184;DHT22;52989;48.796;9.806;2023-05-16T05:16:31;10.00;99.90
66184;DHT22;52989;48.796;9.806;2023-05-16T05:18:57;10.80;99.90
66184;DHT22;52989;48.796;9.806;2023-05-16T05:21:22;10.40;99.90
66184;DHT22;52989;48.796;9.806;2023-05-16T05:23:49;10.70;99.90
66184;DHT22;52989;48.796;9.806;2023-05-16T05:26:15;10.20;99.90
66184;DHT22;52989;48.796;9.806;2023-05-16T05:28:41;9.90;99.90
66184;DHT22;52989;48.796;9.806;2023-05-16T05:31:06;10.20;99.90
66184;DHT22;52989;48.796;9.806;2023-05-16T05:33:32;10.10;99.90
66184;DHT22;52989;48.796;9.806;2023-05-16T05:35:57;10.20;99.90
66184;DHT22;52989;48.796;9.806;2023-05-16T05:38:23;10.30;99.90
66184;DHT22;52989;48.796;9.806;2023-05-16T05:40:49;10.80;99.90
66184;DHT22;52989;48.796;9.806;2023-05-16T05:43:14;10.50;99.90
66184;DHT22;52989;48.796;9.806;2023-05-16T05:45:40;10.20;99.90
66184;DHT22;52989;48.796;9.806;2023-05-16T05:48:05;10.40;99.90
66184;DHT22;52989;48.796;9.806;2023-05-16T05:50:31;10.70;99.90
66184;DHT22;52989;48.796;9.806;2023-05-16T05:52:57;10.60;99.90
66184;DHT22;52989;48.796;9.806;2023-05-16T05:55:22;11.00;99.90
66184;DHT22;52989;48.796;9.806;2023-05-16T05:57:47;10.40;99.90
66184;DHT22;52989;48.796;9.806;2023-05-16T06:00:13;10.70;99.90
66184;DHT22;52989;48.796;9.806;2023-05-16T06:02:39;10.90;99.90
66184;DHT22;52989;48.796;9.806;2023-05-16T06:05:04;11.30;99.90
66184;DHT22;52989;48.796;9.806;2023-05-16T06:07:30;11.40;99.90
66184;DHT22;52989;48.796;9.806;2023-05-16T06:09:55;11.80;99.90
66184;DHT22;52989;48.796;9.806;2023-05-16T06:12:21;11.80;99.90
66184;DHT22;52989;48.796;9.806;2023-05-16T06:14:46;11.80;99.90
66184;DHT22;52989;48.796;9.806;2023-05-16T06:17:12;11.50;99.90
66184;DHT22;52989;48.796;9.806;2023-05-16T06:19:37;11.50;99.90
66184;DHT22;52989;48.796;9.806;2023-05-16T06:22:03;11.40;99.90
66184;DHT22;52989;48.796;9.806;2023-05-16T06:24:28;11.80;99.90
66184;DHT22;52989;48.796;9.806;2023-05-16T06:26:54;11.90;99.90
66184;DHT22;52989;48.796;9.806;2023-05-16T06:29:19;11.90;99.90
66184;DHT22;52989;48.796;9.806;2023-05-16T06:31:45;12.00;99.90
66184;DHT22;52989;48.796;9.806;2023-05-16T06:34:11;11.70;99.90
66184;DHT22;52989;48.796;9.806;2023-05-16T06:36:37;11.80;99.90
66184;DHT22;52989;48.796;9.806;2023-05-16T06:39:02;11.90;99.90
66184;DHT22;52989;48.796;9.806;2023-05-16T06:41:29;12.30;99.90
66184;DHT22;52989;48.796;9.806;2023-05-16T06:43:54;12.70;99.90
66184;DHT22;52989;48.796;9.806;2023-05-16T06:46:20;12.30;99.90
66184;DHT22;52989;48.796;9.806;2023-05-16T06:48:46;12.10;99.90
66184;DHT22;52989;48.796;9.806;2023-05-16T06:51:11;12.10;99.90
66184;DHT22;52989;48.796;9.806;2023-05-16T06:53:37;12.00;99.90
66184;DHT22;52989;48.796;9.806;2023-05-16T06:56:02;12.10;99.90
66184;DHT22;52989;48.796;9.806;2023-05-16T06:58:28;12.00;99.90
66184;DHT22;52989;48.796;9.806;2023-05-16T07:00:53;11.90;99.90
66184;DHT22;52989;48.796;9.806;2023-05-16T07:03:19;11.80;99.90
66184;DHT22;52989;48.796;9.806;2023-05-16T07:05:44;11.90;99.90
66184;DHT22;52989;48.796;9.806;2023-05-16T07:08:10;12.40;99.90
66184;DHT22;52989;48.796;9.806;2023-05-16T07:10:36;12.40;99.90
66184;DHT22;52989;48.796;9.806;2023-05-16T07:13:02;12.80;99.90
66184;DHT22;52989;48.796;9.806;2023-05-16T07:15:29;12.80;99.90
66184;DHT22;52989;48.796;9.806;2023-05-16T07:17:55;12.50;99.90
66184;DHT22;52989;48.796;9.806;2023-05-16T07:20:21;12.60;99.90
66184;DHT22;52989;48.796;9.806;2023-05-16T07:22:46;12.70;99.90
66184;DHT22;52989;48.796;9.806;2023-05-16T07:25:12;12.80;99.90
66184;DHT22;52989;48.796;9.806;2023-05-16T07:27:39;12.80;99.90
66184;DHT22;52989;48.796;9.806;2023-05-16T07:30:11;12.70;99.90
66184;DHT22;52989;48.796;9.806;2023-05-16T07:32:37;12.80;99.90
66184;DHT22;52989;48.796;9.806;2023-05-16T07:35:03;12.70;99.90
66184;DHT22;52989;48.796;9.806;2023-05-16T07:37:29;12.60;99.90
66184;DHT22;52989;48.796;9.806;2023-05-16T07:39:55;12.80;99.90
66184;DHT22;52989;48.796;9.806;2023-05-16T07:42:20;12.70;99.90
66184;DHT22;52989;48.796;9.806;2023-05-16T07:44:46;12.80;99.90
66184;DHT22;52989;48.796;9.806;2023-05-16T07:47:11;12.90;99.90
66184;DHT22;52989;48.796;9.806;2023-05-16T07:49:37;12.80;99.90
66184;DHT22;52989;48.796;9.806;2023-05-16T07:52:03;12.90;99.90
66184;DHT22;52989;48.796;9.806;2023-05-16T07:54:28;13.10;99.90
66184;DHT22;52989;48.796;9.806;2023-05-16T07:56:54;12.90;99.90
66184;DHT22;52989;48.796;9.806;2023-05-16T07:59:19;13.00;99.90
66184;DHT22;52989;48.796;9.806;2023-05-16T08:01:45;12.90;99.90
66184;DHT22;52989;48.796;9.806;2023-05-16T08:04:10;13.10;99.90
66184;DHT22;52989;48.796;9.806;2023-05-16T08:06:36;13.20;99.90
66184;DHT22;52989;48.796;9.806;2023-05-16T08:09:01;13.30;99.90
66184;DHT22;52989;48.796;9.806;2023-05-16T08:11:27;13.40;99.90
66184;DHT22;52989;48.796;9.806;2023-05-16T08:13:52;13.40;99.90
66184;DHT22;52989;48.796;9.806;2023-05-16T08:16:18;13.30;99.90
66184;DHT22;52989;48.796;9.806;2023-05-16T08:18:43;13.10;99.90
66184;DHT22;52989;48.796;9.806;2023-05-16T08:21:08;13.10;99.90
66184;DHT22;52989;48.796;9.806;2023-05-16T08:23:34;12.90;99.90
66184;DHT22;52989;48.796;9.806;2023-05-16T08:26:00;12.90;99.90
66184;DHT22;52989;48.796;9.806;2023-05-16T08:28:26;12.90;99.90
66184;DHT22;52989;48.796;9.806;2023-05-16T08:30:51;12.70;99.90
66184;DHT22;52989;48.796;9.806;2023-05-16T08:33:17;12.70;99.90
66184;DHT22;52989;48.796;9.806;2023-05-16T08:35:42;12.80;99.90
66184;DHT22;52989;48.796;9.806;2023-05-16T08:38:08;12.90;99.90
66184;DHT22;52989;48.796;9.806;2023-05-16T08:40:34;13.10;99.90
66184;DHT22;52989;48.796;9.806;2023-05-16T08:42:59;13.00;99.90
66184;DHT22;52989;48.796;9.806;2023-05-16T08:45:25;13.10;99.90
66184;DHT22;52989;48.796;9.806;2023-05-16T08:47:52;13.30;99.90
66184;DHT22;52989;48.796;9.806;2023-05-16T08:50:18;13.10;99.90
66184;DHT22;52989;48.796;9.806;2023-05-16T08:52:44;13.10;99.90
66184;DHT22;52989;48.796;9.806;2023-05-16T08:55:11;13.30;99.90
66184;DHT22;52989;48.796;9.806;2023-05-16T08:57:37;13.10;99.90
66184;DHT22;52989;48.796;9.806;2023-05-16T09:00:04;13.00;99.90
66184;DHT22;52989;48.796;9.806;2023-05-16T09:02:36;13.10;99.90
66184;DHT22;52989;48.796;9.806;2023-05-16T09:05:02;13.20;99.90
66184;DHT22;52989;48.796;9.806;2023-05-16T09:07:28;13.30;99.90
66184;DHT22;52989;48.796;9.806;2023-05-16T09:09:54;13.50;99.90
66184;DHT22;52989;48.796;9.806;2023-05-16T09:12:19;13.50;99.90
66184;DHT22;52989;48.796;9.806;2023-05-16T09:14:46;13.70;99.90
66184;DHT22;52989;48.796;9.806;2023-05-16T09:17:12;13.70;99.90
66184;DHT22;52989;48.796;9.806;2023-05-16T09:19:38;13.50;99.90
66184;DHT22;52989;48.796;9.806;2023-05-16T09:22:05;13.40;99.90
66184;DHT22;52989;48.796;9.806;2023-05-16T09:24:31;13.40;99.90
66184;DHT22;52989;48.796;9.806;2023-05-16T09:26:57;13.40;99.90
66184;DHT22;52989;48.796;9.806;2023-05-16T09:29:31;13.50;99.90
66184;DHT22;52989;48.796;9.806;2023-05-16T09:32:03;13.30;99.90
66184;DHT22;52989;48.796;9.806;2023-05-16T09:34:29;13.40;99.90
66184;DHT22;52989;48.796;9.806;2023-05-16T09:36:54;13.30;99.90
66184;DHT22;52989;48.796;9.806;2023-05-16T09:39:20;13.30;99.90
66184;DHT22;52989;48.796;9.806;2023-05-16T09:41:45;13.20;99.90
66184;DHT22;52989;48.796;9.806;2023-05-16T09:44:11;13.00;99.90
66184;DHT22;52989;48.796;9.806;2023-05-16T09:46:36;13.20;99.90
66184;DHT22;52989;48.796;9.806;2023-05-16T09:49:02;13.10;99.90
66184;DHT22;52989;48.796;9.806;2023-05-16T09:51:27;13.30;99.90
66184;DHT22;52989;48.796;9.806;2023-05-16T09:53:53;13.00;99.90
66184;DHT22;52989;48.796;9.806;2023-05-16T09:56:19;13.20;99.90
66184;DHT22;52989;48.796;9.806;2023-05-16T09:58:45;13.20;99.90
66184;DHT22;52989;48.796;9.806;2023-05-16T10:01:12;13.00;99.90
66184;DHT22;52989;48.796;9.806;2023-05-16T10:03:38;12.90;99.90
66184;DHT22;52989;48.796;9.806;2023-05-16T10:06:04;13.10;99.90
66184;DHT22;52989;48.796;9.806;2023-05-16T10:08:31;13.10;99.90
66184;DHT22;52989;48.796;9.806;2023-05-16T10:11:00;13.00;99.90
66184;DHT22;52989;48.796;9.806;2023-05-16T10:13:30;13.20;99.90
66184;DHT22;52989;48.796;9.806;2023-05-16T10:15:56;13.20;99.90
66184;DHT22;52989;48.796;9.806;2023-05-16T10:18:23;13.10;99.90
66184;DHT22;52989;48.796;9.806;2023-05-16T10:20:53;13.10;99.90
66184;DHT22;52989;48.796;9.806;2023-05-16T10:23:19;13.00;99.90
66184;DHT22;52989;48.796;9.806;2023-05-16T10:25:46;13.00;99.90
66184;DHT22;52989;48.796;9.806;2023-05-16T10:28:12;12.80;99.90
66184;DHT22;52989;48.796;9.806;2023-05-16T10:30:39;12.90;99.90
66184;DHT22;52989;48.796;9.806;2023-05-16T10:33:05;12.90;99.90
66184;DHT22;52989;48.796;9.806;2023-05-16T10:35:31;12.80;99.90
66184;DHT22;52989;48.796;9.806;2023-05-16T10:37:57;12.90;99.90
66184;DHT22;52989;48.796;9.806;2023-05-16T10:40:23;12.80;99.90
66184;DHT22;52989;48.796;9.806;2023-05-16T10:42:58;12.80;99.90
66184;DHT22;52989;48.796;9.806;2023-05-16T10:45:24;12.90;99.90
66184;DHT22;52989;48.796;9.806;2023-05-16T10:47:57;13.00;99.90
66184;DHT22;52989;48.796;9.806;2023-05-16T10:50:29;12.90;99.90
66184;DHT22;52989;48.796;9.806;2023-05-16T10:52:55;13.10;99.90
66184;DHT22;52989;48.796;9.806;2023-05-16T10:55:20;13.10;99.90
66184;DHT22;52989;48.796;9.806;2023-05-16T10:57:46;13.10;99.90
66184;DHT22;52989;48.796;9.806;2023-05-16T11:00:16;13.20;99.90
66184;DHT22;52989;48.796;9.806;2023-05-16T11:02:46;13.20;99.90
66184;DHT22;52989;48.796;9.806;2023-05-16T11:05:16;13.40;99.90
66184;DHT22;52989;48.796;9.806;2023-05-16T11:07:43;13.40;99.90
66184;DHT22;52989;48.796;9.806;2023-05-16T11:10:14;13.60;99.90
66184;DHT22;52989;48.796;9.806;2023-05-16T11:12:44;13.60;99.90
66184;DHT22;52989;48.796;9.806;2023-05-16T11:15:23;13.50;99.90
66184;DHT22;52989;48.796;9.806;2023-05-16T11:17:49;13.50;99.90
66184;DHT22;52989;48.796;9.806;2023-05-16T11:20:25;13.60;99.90
66184;DHT22;52989;48.796;9.806;2023-05-16T11:22:51;13.70;99.90
66184;DHT22;52989;48.796;9.806;2023-05-16T11:25:36;13.80;99.90
66184;DHT22;52989;48.796;9.806;2023-05-16T11:28:05;14.10;99.90
66184;DHT22;52989;48.796;9.806;2023-05-16T11:30:32;14.10;99.90
66184;DHT22;52989;48.796;9.806;2023-05-16T11:32:58;14.10;99.90
66184;DHT22;52989;48.796;9.806;2023-05-16T11:35:24;14.20;99.10
66184;DHT22;52989;48.796;9.806;2023-05-16T11:37:49;14.20;99.90
66184;DHT22;52989;48.796;9.806;2023-05-16T11:40:16;14.30;99.10
66184;DHT22;52989;48.796;9.806;2023-05-16T11:42:42;14.50;98.50
66184;DHT22;52989;48.796;9.806;2023-05-16T11:45:13;14.40;98.30
66184;DHT22;52989;48.796;9.806;2023-05-16T11:47:39;14.70;98.30
66184;DHT22;52989;48.796;9.806;2023-05-16T11:50:12;14.70;98.10
66184;DHT22;52989;48.796;9.806;2023-05-16T11:52:38;14.50;97.80
66184;DHT22;52989;48.796;9.806;2023-05-16T11:55:04;14.40;98.70
66184;DHT22;52989;48.796;9.806;2023-05-16T11:57:31;14.30;99.90
66184;DHT22;52989;48.796;9.806;2023-05-16T12:00:13;14.30;98.00
66184;DHT22;52989;48.796;9.806;2023-05-16T12:02:39;14.50;98.80
66184;DHT22;52989;48.796;9.806;2023-05-16T12:05:08;14.80;97.50
66184;DHT22;52989;48.796;9.806;2023-05-16T12:07:34;14.90;96.90
66184;DHT22;52989;48.796;9.806;2023-05-16T12:10:07;14.60;97.40
66184;DHT22;52989;48.796;9.806;2023-05-16T12:12:33;14.20;98.70
66184;DHT22;52989;48.796;9.806;2023-05-16T12:14:59;14.10;97.80
66184;DHT22;52989;48.796;9.806;2023-05-16T12:17:24;14.20;98.50
66184;DHT22;52989;48.796;9.806;2023-05-16T12:19:50;14.20;97.80
66184;DHT22;52989;48.796;9.806;2023-05-16T12:22:16;14.10;98.30
66184;DHT22;52989;48.796;9.806;2023-05-16T12:24:42;14.20;98.20
66184;DHT22;52989;48.796;9.806;2023-05-16T12:27:08;14.20;98.10
66184;DHT22;52989;48.796;9.806;2023-05-16T12:29:34;14.20;98.60
66184;DHT22;52989;48.796;9.806;2023-05-16T12:31:59;14.10;97.20
66184;DHT22;52989;48.796;9.806;2023-05-16T12:34:27;14.10;97.30
66184;DHT22;52989;48.796;9.806;2023-05-16T12:36:53;14.10;97.50
66184;DHT22;52989;48.796;9.806;2023-05-16T12:39:18;14.10;97.40
66184;DHT22;52989;48.796;9.806;2023-05-16T12:41:45;14.20;98.10
66184;DHT22;52989;48.796;9.806;2023-05-16T12:44:11;14.10;97.70
66184;DHT22;52989;48.796;9.806;2023-05-16T12:46:42;14.00;98.20
66184;DHT22;52989;48.796;9.806;2023-05-16T12:49:08;14.10;98.20
66184;DHT22;52989;48.796;9.806;2023-05-16T12:51:33;14.20;97.60
66184;DHT22;52989;48.796;9.806;2023-05-16T12:54:06;14.20;98.50
66184;DHT22;52989;48.796;9.806;2023-05-16T12:56:31;14.20;99.00
66184;DHT22;52989;48.796;9.806;2023-05-16T12:58:57;14.30;97.40
66184;DHT22;52989;48.796;9.806;2023-05-16T13:01:22;14.30;97.00
66184;DHT22;52989;48.796;9.806;2023-05-16T13:03:48;14.50;98.10
66184;DHT22;52989;48.796;9.806;2023-05-16T13:06:13;14.60;97.70
66184;DHT22;52989;48.796;9.806;2023-05-16T13:08:39;14.50;98.30
66184;DHT22;52989;48.796;9.806;2023-05-16T13:11:04;14.60;97.10
66184;DHT22;52989;48.796;9.806;2023-05-16T13:13:30;14.90;96.70
66184;DHT22;52989;48.796;9.806;2023-05-16T13:15:56;14.90;96.20
66184;DHT22;52989;48.796;9.806;2023-05-16T13:18:21;14.80;97.30
66184;DHT22;52989;48.796;9.806;2023-05-16T13:20:47;14.70;96.40
66184;DHT22;52989;48.796;9.806;2023-05-16T13:23:13;14.80;96.70
66184;DHT22;52989;48.796;9.806;2023-05-16T13:25:39;14.90;96.30
66184;DHT22;52989;48.796;9.806;2023-05-16T13:28:04;14.90;96.00
66184;DHT22;52989;48.796;9.806;2023-05-16T13:30:30;15.10;96.10
66184;DHT22;52989;48.796;9.806;2023-05-16T13:32:56;15.20;95.60
66184;DHT22;52989;48.796;9.806;2023-05-16T13:35:22;15.50;95.70
66184;DHT22;52989;48.796;9.806;2023-05-16T13:37:48;15.30;95.00
66184;DHT22;52989;48.796;9.806;2023-05-16T13:40:13;15.40;96.10
66184;DHT22;52989;48.796;9.806;2023-05-16T13:42:39;15.40;94.90
66184;DHT22;52989;48.796;9.806;2023-05-16T13:45:05;15.20;94.30
66184;DHT22;52989;48.796;9.806;2023-05-16T13:47:31;15.20;94.90
66184;DHT22;52989;48.796;9.806;2023-05-16T13:49:59;14.90;94.60
66184;DHT22;52989;48.796;9.806;2023-05-16T13:52:30;14.50;95.60
66184;DHT22;52989;48.796;9.806;2023-05-16T13:54:56;14.50;96.20
66184;DHT22;52989;48.796;9.806;2023-05-16T13:57:21;14.40;96.00
66184;DHT22;52989;48.796;9.806;2023-05-16T13:59:47;14.30;96.10
66184;DHT22;52989;48.796;9.806;2023-05-16T14:02:13;14.20;95.50
66184;DHT22;52989;48.796;9.806;2023-05-16T14:04:38;14.00;96.80
66184;DHT22;52989;48.796;9.806;2023-05-16T14:07:03;13.90;95.60
66184;DHT22;52989;48.796;9.806;2023-05-16T14:09:29;13.80;96.80
66184;DHT22;52989;48.796;9.806;2023-05-16T14:11:55;13.80;96.40
66184;DHT22;52989;48.796;9.806;2023-05-16T14:14:21;13.60;96.90
66184;DHT22;52989;48.796;9.806;2023-05-16T14:16:46;13.50;96.30
66184;DHT22;52989;48.796;9.806;2023-05-16T14:19:12;13.50;97.60
66184;DHT22;52989;48.796;9.806;2023-05-16T14:21:37;13.30;96.90
66184;DHT22;52989;48.796;9.806;2023-05-16T14:24:03;13.60;97.20
66184;DHT22;52989;48.796;9.806;2023-05-16T14:26:28;13.60;96.80
66184;DHT22;52989;48.796;9.806;2023-05-16T14:28:56;13.60;97.30
66184;DHT22;52989;48.796;9.806;2023-05-16T14:31:21;13.70;96.90
66184;DHT22;52989;48.796;9.806;2023-05-16T14:33:47;14.00;96.50
66184;DHT22;52989;48.796;9.806;2023-05-16T14:36:13;14.00;95.90
66184;DHT22;52989;48.796;9.806;2023-05-16T14:38:38;14.10;95.40
66184;DHT22;52989;48.796;9.806;2023-05-16T14:41:04;14.20;96.00
66184;DHT22;52989;48.796;9.806;2023-05-16T14:43:30;14.20;95.90
66184;DHT22;52989;48.796;9.806;2023-05-16T14:45:55;14.10;94.70
66184;DHT22;52989;48.796;9.806;2023-05-16T14:48:21;14.00;95.90
66184;DHT22;52989;48.796;9.806;2023-05-16T14:50:46;13.90;96.10
66184;DHT22;52989;48.796;9.806;2023-05-16T14:53:12;14.10;96.20
66184;DHT22;52989;48.796;9.806;2023-05-16T14:55:37;14.10;95.50
66184;DHT22;52989;48.796;9.806;2023-05-16T14:58:03;13.90;95.40
66184;DHT22;52989;48.796;9.806;2023-05-16T15:00:29;13.80;95.30
66184;DHT22;52989;48.796;9.806;2023-05-16T15:02:56;14.00;95.70
66184;DHT22;52989;48.796;9.806;2023-05-16T15:05:21;14.30;95.00
66184;DHT22;52989;48.796;9.806;2023-05-16T15:07:48;14.20;95.30
66184;DHT22;52989;48.796;9.806;2023-05-16T15:10:14;14.30;95.40
66184;DHT22;52989;48.796;9.806;2023-05-16T15:12:39;14.40;94.40
66184;DHT22;52989;48.796;9.806;2023-05-16T15:15:08;14.40;94.40
66184;DHT22;52989;48.796;9.806;2023-05-16T15:17:37;14.40;94.60
66184;DHT22;52989;48.796;9.806;2023-05-16T15:20:03;14.50;94.00
66184;DHT22;52989;48.796;9.806;2023-05-16T15:22:29;14.60;93.90
66184;DHT22;52989;48.796;9.806;2023-05-16T15:24:55;14.50;94.20
66184;DHT22;52989;48.796;9.806;2023-05-16T15:27:20;14.40;95.40
66184;DHT22;52989;48.796;9.806;2023-05-16T15:29:46;14.40;96.10
66184;DHT22;52989;48.796;9.806;2023-05-16T15:32:12;14.10;95.60
66184;DHT22;52989;48.796;9.806;2023-05-16T15:34:37;13.60;94.50
66184;DHT22;52989;48.796;9.806;2023-05-16T15:37:03;13.70;95.50
66184;DHT22;52989;48.796;9.806;2023-05-16T15:39:29;13.60;95.60
66184;DHT22;52989;48.796;9.806;2023-05-16T15:41:54;13.80;95.90
66184;DHT22;52989;48.796;9.806;2023-05-16T15:44:19;13.70;96.90
66184;DHT22;52989;48.796;9.806;2023-05-16T15:46:45;13.60;96.70